FFO weather

Wright-Patterson Air Force Base
Dayton, Ohio, United States

Public forecast

Using degrees Fahrenheit for public forecast. Weather courtesy of forecast.io.

METAR (pilot weather report)

Retrieved 2019/03/23 01:56 UTC (6 minutes ago):

KFFO 230156Z AUTO 30008KT 10SM CLR 04/M05 A3013 RMK AO2 SLP212 T00351047

TAF (pilot weather forecast)

Forecast is more than 6 hours old.

Retrieved 2019/03/22 19:18 UTC (7 hours ago):

TAF KFFO 221900Z 2219/2401 32012G25KT 9999 OVC050 620502 QNH2990INS BECMG 2221/2222 33015G25KT 9999 BKN050 620502 QNH2998INS BECMG 2223/2224 32012KT 9999 SCT050 QNH3005INS BECMG 2310/2311 30007KT 9999 SKC QNH3023INS BECMG 2322/2323 VRB06KT 9999 SKC QNH3024INS TX08/2221Z TNM03/2312Z